Campina Grande do Sul, Brazil
Current Conditions -  °F | °C
As of 4:00 PM on Saturday 25 Oct 2014 (Local Time) from SBBI Reporting Station
Scattered Clouds Scattered Clouds  
Wind Chill: 75°   Ceiling: Unl
Heat Index: 75°   Visibility: 6mi
Dew Point: 63°   Wind: 5mph
Humidity: 65%   Direction: 350°N
Pressure: 30"   Gusts: NA
Location:  25.31°S, 49.06°W
Report Text: SBBI 251800Z 35004KT 9999 FEW030 SCT100 24/17 Q1016
Loading
Personal Weather Stations






























Interactive Weather Map
Tropical Storm Tracking
New forecast layout! Learn more

10-Day Weather Forecast

Advertisements
Track Severe Weather on mobile